createdAt,value
2022-12-03T00:13:25.826Z,0
2022-12-03T00:28:22.047Z,0
2022-12-03T00:43:18.516Z,0
2022-12-03T00:58:14.640Z,0
2022-12-03T01:13:10.704Z,0
2022-12-03T01:28:06.996Z,0
2022-12-03T01:43:03.625Z,0
2022-12-03T01:58:00.093Z,0
2022-12-03T02:12:56.143Z,0
2022-12-03T02:57:45.256Z,0
2022-12-03T03:12:41.731Z,0
2022-12-03T03:27:37.995Z,0
2022-12-03T03:42:34.350Z,0
2022-12-03T03:57:30.877Z,0
2022-12-03T04:12:27.172Z,0
2022-12-03T04:27:23.290Z,0
2022-12-03T04:42:19.477Z,0
2022-12-03T04:57:16.323Z,0
2022-12-03T05:12:12.768Z,0.01
2022-12-03T05:27:08.993Z,0
2022-12-03T05:42:05.558Z,0
2022-12-03T05:57:01.738Z,0
2022-12-03T06:11:57.964Z,0
2022-12-03T06:26:54.115Z,0
2022-12-03T06:41:49.996Z,0.01
2022-12-03T06:56:46.451Z,0.01
2022-12-03T07:11:42.413Z,0.02
2022-12-03T07:26:38.320Z,0.02
2022-12-03T07:41:34.051Z,0.02
2022-12-03T07:56:29.907Z,0.02
2022-12-03T08:11:26.474Z,0.04
2022-12-03T08:26:22.321Z,0.04
2022-12-03T08:56:15.250Z,0.03
2022-12-03T09:11:11.213Z,0.03
2022-12-03T09:26:07.773Z,0.02
2022-12-03T09:41:03.770Z,0.04
2022-12-03T09:56:00.186Z,0.03
2022-12-03T10:10:56.362Z,0.04
2022-12-03T10:25:52.684Z,0.05
2022-12-03T10:40:48.753Z,0.03
2022-12-03T10:55:45.317Z,0.04
2022-12-03T11:10:41.815Z,0.04
2022-12-03T11:25:37.922Z,0.06
2022-12-03T11:40:39.249Z,0.06
2022-12-03T11:55:30.511Z,0.04
2022-12-03T12:10:26.828Z,0.04
2022-12-03T12:25:23.025Z,0.06
2022-12-03T12:40:19.501Z,0.07
2022-12-03T12:55:16.012Z,0.12
2022-12-03T13:10:12.143Z,0.03
2022-12-03T13:25:08.613Z,0.05
2022-12-03T13:40:05.350Z,0.05
2022-12-03T13:55:01.169Z,0.05
2022-12-03T14:09:57.295Z,0.03
2022-12-03T14:24:53.282Z,0.02
2022-12-03T14:39:49.874Z,0.02
2022-12-03T14:54:45.922Z,0.02
2022-12-03T15:09:42.086Z,0
2022-12-03T15:24:38.070Z,0.01
2022-12-03T15:39:34.161Z,0
2022-12-03T15:54:30.312Z,0
2022-12-03T16:09:27.531Z,0
2022-12-03T16:24:23.207Z,0
2022-12-03T16:39:19.173Z,0
2022-12-03T16:54:15.227Z,0
2022-12-03T17:09:11.478Z,0
2022-12-03T17:24:08.008Z,0
2022-12-03T17:39:04.027Z,0
2022-12-03T17:53:59.853Z,0
2022-12-03T18:08:55.594Z,0
2022-12-03T18:23:51.924Z,0
2022-12-03T18:38:48.156Z,0
2022-12-03T18:53:44.578Z,0
2022-12-03T19:08:40.263Z,0
2022-12-03T19:23:36.384Z,0
2022-12-03T19:38:33.115Z,0
2022-12-03T19:53:29.646Z,0
2022-12-03T20:08:26.241Z,0
2022-12-03T20:23:22.394Z,0
2022-12-03T20:38:18.677Z,0
2022-12-03T20:53:24.577Z,0
2022-12-03T21:08:11.125Z,0
2022-12-03T21:23:07.318Z,0
2022-12-03T21:38:03.396Z,0
2022-12-03T21:52:59.175Z,0
2022-12-03T23:07:40.139Z,0
2022-12-03T23:22:35.998Z,0
2022-12-03T23:37:32.182Z,0
2022-12-03T23:52:28.015Z,0
